createdAt,value
2023-04-27T00:01:41.343Z,12.88
2023-04-27T00:04:08.298Z,16.13
2023-04-27T00:06:35.121Z,16.52
2023-04-27T00:09:02.048Z,17.50
2023-04-27T00:11:28.682Z,14.60
2023-04-27T00:13:56.053Z,13.35
2023-04-27T00:16:22.800Z,14.05
2023-04-27T00:18:49.587Z,13.77
2023-04-27T00:21:16.361Z,12.52
2023-04-27T00:23:45.353Z,11.98
2023-04-27T00:26:12.045Z,14.07
2023-04-27T00:28:38.746Z,11.68
2023-04-27T00:31:05.503Z,12.63
2023-04-27T00:33:32.293Z,13.30
2023-04-27T00:36:02.549Z,16.08
2023-04-27T00:38:32.386Z,11.93
2023-04-27T00:41:06.857Z,12.27
2023-04-27T00:43:41.413Z,15.82
2023-04-27T00:46:08.910Z,16.30
2023-04-27T00:48:35.688Z,13.48
2023-04-27T00:51:02.542Z,15.77
2023-04-27T00:53:29.684Z,13.32
2023-04-27T00:55:56.380Z,11.45
2023-04-27T00:58:23.118Z,13.35
2023-04-27T01:00:49.968Z,12.43
2023-04-27T01:03:17.454Z,10.85
2023-04-27T01:05:44.621Z,19.73
2023-04-27T01:08:11.722Z,16.25
2023-04-27T01:10:38.764Z,11.32
2023-04-27T01:13:05.716Z,13.38
2023-04-27T01:15:32.364Z,15.20
2023-04-27T01:18:03.012Z,9.65
2023-04-27T01:20:32.614Z,9.10
2023-04-27T01:22:59.837Z,13.93
2023-04-27T01:25:26.872Z,9.50
2023-04-27T01:27:56.249Z,9.60
2023-04-27T01:30:26.208Z,11.75
2023-04-27T01:32:52.994Z,11.57
2023-04-27T01:35:19.839Z,12.88
2023-04-27T01:37:46.763Z,14.35
2023-04-27T01:40:13.739Z,14.68
2023-04-27T01:42:40.491Z,18.08
2023-04-27T01:45:07.801Z,14.32
2023-04-27T01:47:34.873Z,12.57
2023-04-27T01:50:04.508Z,16.90
2023-04-27T01:52:31.267Z,11.20
2023-04-27T01:54:57.944Z,10.70
2023-04-27T01:57:24.664Z,9.95
2023-04-27T01:59:52.825Z,9.75
2023-04-27T02:02:19.655Z,10.60
2023-04-27T02:04:46.413Z,11.70
2023-04-27T02:07:13.166Z,10.82
2023-04-27T02:09:39.862Z,13.48
2023-04-27T02:12:06.730Z,10.63
2023-04-27T02:14:36.101Z,11.98
2023-04-27T02:17:02.801Z,12.30
2023-04-27T02:19:29.655Z,10.88
2023-04-27T02:21:56.380Z,12.25
2023-04-27T02:24:23.058Z,12.25
2023-04-27T02:26:49.780Z,17.17
2023-04-27T02:29:19.576Z,13.70
2023-04-27T02:31:46.857Z,14.45
2023-04-27T02:34:13.608Z,12.57
2023-04-27T02:36:40.316Z,14.45
2023-04-27T02:39:07.561Z,14.20
2023-04-27T02:41:34.220Z,16.05
2023-04-27T02:44:09.286Z,11.50
2023-04-27T02:46:36.215Z,13.23
2023-04-27T02:49:03.096Z,13.20
2023-04-27T02:51:29.835Z,15.27
2023-04-27T02:53:56.929Z,15.95
2023-04-27T02:56:23.884Z,14.52
2023-04-27T02:58:52.795Z,11.70
2023-04-27T03:01:19.551Z,19.60
2023-04-27T03:03:55.040Z,14.73
2023-04-27T03:06:28.247Z,17.90
2023-04-27T03:08:58.808Z,16.25
2023-04-27T03:11:25.594Z,13.65
2023-04-27T03:13:52.322Z,12.13
2023-04-27T03:16:22.242Z,14.07
2023-04-27T03:18:48.939Z,12.73
2023-04-27T03:21:15.790Z,13.70
2023-04-27T03:23:42.894Z,10.20
2023-04-27T03:26:11.053Z,19.23
2023-04-27T03:28:38.455Z,14.73
2023-04-27T03:31:10.990Z,8.93
2023-04-27T03:33:38.360Z,12.25
2023-04-27T03:36:06.644Z,15.43
2023-04-27T03:38:33.790Z,15.70
2023-04-27T03:41:00.431Z,14.48
2023-04-27T03:43:27.378Z,13.25
2023-04-27T03:45:54.333Z,15.40
2023-04-27T03:48:21.204Z,13.90
2023-04-27T03:50:48.200Z,13.10
2023-04-27T03:53:15.328Z,10.00
2023-04-27T03:55:43.331Z,10.02
2023-04-27T03:58:10.948Z,12.27
2023-04-27T04:00:38.238Z,7.22
2023-04-27T04:03:06.924Z,10.07
2023-04-27T04:05:35.375Z,6.55
2023-04-27T04:08:05.048Z,9.02
2023-04-27T04:10:33.458Z,9.00
2023-04-27T04:13:00.146Z,9.55
2023-04-27T04:15:28.382Z,11.85
2023-04-27T04:18:03.277Z,11.73
2023-04-27T04:20:29.974Z,12.20
2023-04-27T04:22:56.792Z,13.27
2023-04-27T04:25:23.544Z,14.38
2023-04-27T04:27:53.246Z,11.75
2023-04-27T04:30:20.761Z,11.93
2023-04-27T04:32:49.392Z,14.40
2023-04-27T04:35:16.307Z,12.70
2023-04-27T04:37:44.411Z,12.10
2023-04-27T04:40:11.544Z,10.25
2023-04-27T04:42:38.352Z,12.60
2023-04-27T04:45:09.093Z,11.43
2023-04-27T04:47:36.072Z,10.82
2023-04-27T04:50:02.762Z,8.32
2023-04-27T04:52:31.125Z,11.60
2023-04-27T04:54:57.814Z,14.07
2023-04-27T04:57:24.547Z,9.20
2023-04-27T04:59:51.276Z,11.75
2023-04-27T05:02:20.864Z,12.40
2023-04-27T05:04:48.039Z,7.63
2023-04-27T05:07:16.084Z,7.63
2023-04-27T05:09:44.074Z,9.40
2023-04-27T05:12:13.842Z,13.32
2023-04-27T05:14:40.700Z,9.40
2023-04-27T05:17:07.499Z,11.55
2023-04-27T05:19:47.914Z,9.20
2023-04-27T05:22:22.663Z,5.93
2023-04-27T05:24:49.425Z,6.75
2023-04-27T05:27:19.920Z,6.75
2023-04-27T05:29:46.868Z,7.75
2023-04-27T05:32:13.576Z,8.13
2023-04-27T05:34:40.265Z,8.90
2023-04-27T05:37:07.185Z,6.90
2023-04-27T05:39:36.626Z,4.70
2023-04-27T05:42:03.581Z,9.40
2023-04-27T05:44:30.412Z,5.95
2023-04-27T05:47:04.868Z,7.25
2023-04-27T05:49:43.329Z,9.38
2023-04-27T05:52:12.604Z,6.28
2023-04-27T05:54:46.521Z,7.50
2023-04-27T05:57:13.277Z,9.52
2023-04-27T05:59:40.104Z,4.53
2023-04-27T06:02:07.138Z,10.43
2023-04-27T06:04:47.411Z,4.68
2023-04-27T06:07:16.387Z,3.72
2023-04-27T06:09:43.153Z,6.53
2023-04-27T06:12:11.600Z,4.65
2023-04-27T06:14:40.467Z,3.78
2023-04-27T06:17:07.231Z,5.13
2023-04-27T06:19:38.252Z,6.53
2023-04-27T06:22:04.968Z,6.87
2023-04-27T06:24:31.828Z,4.15
2023-04-27T06:27:00.944Z,5.55
2023-04-27T06:29:28.880Z,7.57
2023-04-27T06:31:55.851Z,4.55
2023-04-27T06:34:22.781Z,5.10
2023-04-27T06:36:49.551Z,8.30
2023-04-27T06:39:16.940Z,11.40
2023-04-27T06:41:45.024Z,7.10
2023-04-27T06:44:11.790Z,7.28
2023-04-27T06:46:38.475Z,11.80
2023-04-27T06:49:05.135Z,9.43
2023-04-27T06:51:31.837Z,8.10
2023-04-27T06:54:06.005Z,10.07
2023-04-27T06:56:32.692Z,8.05
2023-04-27T06:59:08.172Z,11.15
2023-04-27T07:01:34.951Z,6.18
2023-04-27T07:04:13.571Z,10.80
2023-04-27T07:06:47.798Z,11.45
2023-04-27T07:09:26.429Z,10.93
2023-04-27T07:11:55.913Z,15.30
2023-04-27T07:14:24.890Z,9.57
2023-04-27T07:16:51.567Z,10.55
2023-04-27T07:19:18.277Z,9.90
2023-04-27T07:21:47.588Z,8.95
2023-04-27T07:24:14.274Z,9.35
2023-04-27T07:26:42.675Z,8.38
2023-04-27T07:29:22.927Z,10.75
2023-04-27T07:31:54.010Z,8.75
2023-04-27T07:34:20.712Z,10.13
2023-04-27T07:36:47.617Z,9.30
2023-04-27T07:39:14.495Z,10.35
2023-04-27T07:41:41.304Z,9.43
2023-04-27T07:44:08.047Z,8.15
2023-04-27T07:46:34.770Z,11.80
2023-04-27T07:49:07.911Z,8.80
2023-04-27T07:51:44.103Z,11.00
2023-04-27T07:54:15.888Z,11.65
2023-04-27T07:56:43.445Z,11.82
2023-04-27T07:59:10.158Z,15.20
2023-04-27T08:01:36.957Z,13.15
2023-04-27T08:04:03.875Z,15.80
2023-04-27T08:06:32.508Z,13.50
2023-04-27T08:08:59.675Z,19.15
2023-04-27T08:11:27.045Z,13.88
2023-04-27T08:13:53.873Z,14.70
2023-04-27T08:16:25.654Z,15.77
2023-04-27T08:19:00.686Z,12.30
2023-04-27T08:21:27.716Z,12.90
2023-04-27T08:23:54.452Z,12.65
2023-04-27T08:26:21.101Z,11.45
2023-04-27T08:28:47.791Z,12.63
2023-04-27T08:31:14.509Z,12.50
2023-04-27T08:33:44.096Z,17.17
2023-04-27T08:36:12.149Z,14.68
2023-04-27T08:38:39.114Z,9.77
2023-04-27T08:41:20.276Z,12.90
2023-04-27T08:43:52.625Z,14.95
2023-04-27T08:46:24.872Z,15.63
2023-04-27T08:51:18.635Z,15.60
2023-04-27T08:53:51.028Z,13.13
2023-04-27T08:56:27.670Z,14.05
2023-04-27T08:58:58.931Z,10.57
2023-04-27T09:01:28.004Z,11.73
2023-04-27T09:04:02.133Z,13.52
2023-04-27T09:06:39.107Z,12.77
2023-04-27T09:09:15.407Z,14.60
2023-04-27T09:11:42.327Z,17.58
2023-04-27T09:14:23.254Z,11.80
2023-04-27T09:17:00.129Z,12.55
2023-04-27T09:19:28.924Z,14.60
2023-04-27T09:22:13.894Z,14.55
2023-04-27T09:24:51.006Z,11.00
2023-04-27T09:27:21.562Z,11.25
2023-04-27T09:29:48.576Z,9.85
2023-04-27T09:32:22.067Z,15.43
2023-04-27T09:34:49.187Z,11.60
2023-04-27T09:37:19.368Z,9.27
2023-04-27T09:39:46.754Z,8.93
2023-04-27T09:42:14.785Z,7.15
2023-04-27T09:44:41.474Z,8.23
2023-04-27T09:47:09.464Z,9.52
2023-04-27T09:49:36.465Z,7.10
2023-04-27T09:52:11.988Z,5.93
2023-04-27T09:55:03.767Z,5.85
2023-04-27T09:57:54.106Z,7.55
2023-04-27T10:00:27.843Z,5.25
2023-04-27T10:03:19.124Z,7.82
2023-04-27T10:06:02.290Z,6.43
2023-04-27T10:08:37.299Z,6.18
2023-04-27T10:11:20.216Z,8.35
2023-04-27T10:13:57.892Z,6.75
2023-04-27T10:16:27.804Z,5.88
2023-04-27T10:18:57.760Z,9.85
2023-04-27T10:21:25.919Z,4.93
2023-04-27T10:23:52.957Z,4.47
2023-04-27T10:26:28.157Z,5.50
2023-04-27T10:29:09.054Z,4.07
2023-04-27T10:31:36.401Z,3.53
2023-04-27T10:34:13.937Z,6.50
2023-04-27T10:36:43.408Z,4.65
2023-04-27T10:39:48.550Z,7.22
2023-04-27T10:42:28.040Z,10.60
2023-04-27T10:44:59.232Z,5.45
2023-04-27T10:47:43.569Z,5.90
2023-04-27T10:50:13.146Z,4.57
2023-04-27T10:52:44.297Z,5.22
2023-04-27T10:55:18.808Z,4.00
2023-04-27T10:58:06.418Z,6.65
2023-04-27T11:00:37.929Z,3.65
2023-04-27T11:03:19.516Z,4.70
2023-04-27T11:05:48.021Z,3.58
2023-04-27T11:08:27.439Z,3.58
2023-04-27T11:10:54.844Z,6.85
2023-04-27T11:13:27.226Z,7.90
2023-04-27T11:15:59.054Z,5.00
2023-04-27T11:21:05.897Z,5.22
2023-04-27T11:23:33.351Z,4.88
2023-04-27T11:26:11.991Z,6.40
2023-04-27T11:28:39.966Z,7.55
2023-04-27T11:31:07.317Z,4.72
2023-04-27T11:33:35.902Z,7.20
2023-04-27T11:36:23.170Z,7.90
2023-04-27T11:39:11.635Z,6.53
2023-04-27T11:41:53.985Z,6.60
2023-04-27T11:44:32.796Z,6.47
2023-04-27T11:47:02.991Z,6.78
2023-04-27T11:49:29.838Z,5.97
2023-04-27T11:51:57.154Z,7.13
2023-04-27T11:54:29.381Z,7.40
2023-04-27T11:57:05.708Z,5.97
2023-04-27T11:59:32.487Z,8.10
2023-04-27T12:02:01.421Z,6.07
2023-04-27T12:04:37.474Z,5.43
2023-04-27T12:07:15.048Z,4.43
2023-04-27T12:09:43.203Z,8.02
2023-04-27T12:12:12.730Z,6.10
2023-04-27T12:14:40.703Z,10.15
2023-04-27T12:17:07.444Z,14.30
2023-04-27T12:19:34.330Z,9.48
2023-04-27T12:22:03.251Z,3.50
2023-04-27T12:24:30.115Z,5.20
2023-04-27T12:26:57.008Z,9.10
2023-04-27T12:29:23.926Z,4.88
2023-04-27T12:31:54.216Z,3.70
2023-04-27T12:34:21.160Z,6.25
2023-04-27T12:36:50.689Z,8.93
2023-04-27T12:39:22.448Z,6.68
2023-04-27T12:41:50.081Z,10.93
2023-04-27T12:44:18.495Z,5.63
2023-04-27T12:46:46.443Z,7.43
2023-04-27T12:49:13.566Z,5.57
2023-04-27T12:51:42.891Z,4.78
2023-04-27T12:54:10.837Z,3.85
2023-04-27T12:56:40.640Z,6.07
2023-04-27T12:59:07.794Z,3.05
2023-04-27T13:01:40.894Z,3.47
2023-04-27T13:04:08.157Z,3.53
2023-04-27T13:06:35.137Z,7.75
2023-04-27T13:09:04.161Z,2.55
2023-04-27T13:11:35.005Z,5.78
2023-04-27T13:14:01.736Z,6.07
2023-04-27T13:16:28.494Z,5.70
2023-04-27T13:18:59.149Z,3.90
2023-04-27T13:21:25.855Z,3.13
2023-04-27T13:23:52.633Z,4.43
2023-04-27T13:26:22.336Z,5.35
2023-04-27T13:28:51.274Z,7.63
2023-04-27T13:31:20.605Z,5.13
2023-04-27T13:33:51.911Z,3.28
2023-04-27T13:36:21.402Z,7.03
2023-04-27T13:38:50.986Z,5.68
2023-04-27T13:41:21.090Z,7.28
2023-04-27T13:43:50.703Z,9.07
2023-04-27T13:46:24.397Z,8.02
2023-04-27T13:48:51.155Z,3.35
2023-04-27T13:51:18.131Z,2.63
2023-04-27T13:53:49.770Z,4.72
2023-04-27T13:56:16.461Z,2.80
2023-04-27T13:58:43.141Z,6.13
2023-04-27T14:01:19.089Z,4.18
2023-04-27T14:03:46.973Z,4.85
2023-04-27T14:06:13.765Z,2.63
2023-04-27T14:08:47.128Z,2.50
2023-04-27T14:11:21.976Z,9.43
2023-04-27T14:13:52.258Z,2.72
2023-04-27T14:16:19.653Z,6.72
2023-04-27T14:18:46.401Z,3.92
2023-04-27T14:21:13.224Z,3.28
2023-04-27T14:23:49.494Z,4.57
2023-04-27T14:26:19.097Z,3.90
2023-04-27T14:28:47.685Z,1.63
2023-04-27T14:31:16.871Z,7.60
2023-04-27T14:33:43.570Z,4.65
2023-04-27T14:36:10.373Z,7.03
2023-04-27T14:38:39.324Z,3.97
2023-04-27T14:41:06.014Z,2.67
2023-04-27T14:43:41.720Z,11.15
2023-04-27T14:48:47.185Z,10.32
2023-04-27T14:51:14.666Z,2.28
2023-04-27T14:53:41.782Z,3.05
2023-04-27T14:56:08.864Z,3.90
2023-04-27T14:58:42.154Z,2.08
2023-04-27T15:01:16.469Z,5.03
2023-04-27T15:03:44.273Z,4.65
2023-04-27T15:06:11.488Z,5.50
2023-04-27T15:08:41.931Z,4.65
2023-04-27T15:11:10.214Z,2.80
2023-04-27T15:13:39.787Z,4.13
2023-04-27T15:16:06.891Z,3.35
2023-04-27T15:18:33.753Z,5.32
2023-04-27T15:21:00.407Z,5.45
2023-04-27T15:23:28.383Z,7.45
2023-04-27T15:25:57.031Z,2.65
2023-04-27T15:28:34.556Z,3.60
2023-04-27T15:31:02.459Z,2.10
2023-04-27T15:33:29.174Z,2.50
2023-04-27T15:36:03.704Z,3.40
2023-04-27T15:38:30.466Z,5.50
2023-04-27T15:40:57.232Z,2.55
2023-04-27T15:43:24.108Z,2.17
2023-04-27T15:45:50.869Z,1.77
2023-04-27T15:48:17.597Z,3.42
2023-04-27T15:50:47.304Z,4.78
2023-04-27T15:53:14.236Z,6.88
2023-04-27T15:55:40.938Z,4.05
2023-04-27T15:58:07.835Z,1.55
2023-04-27T16:00:36.218Z,1.45
2023-04-27T16:03:03.095Z,2.88
2023-04-27T16:05:29.907Z,2.30
2023-04-27T16:07:57.072Z,1.92
2023-04-27T16:10:24.110Z,2.28
2023-04-27T16:12:50.852Z,5.15
2023-04-27T16:15:17.891Z,3.58
2023-04-27T16:17:55.342Z,5.55
2023-04-27T16:20:23.086Z,6.85
2023-04-27T16:22:52.362Z,5.68
2023-04-27T16:25:23.585Z,1.85
2023-04-27T16:27:50.772Z,6.93
2023-04-27T16:30:18.492Z,9.45
2023-04-27T16:32:45.187Z,4.57
2023-04-27T16:35:11.902Z,5.25
2023-04-27T16:37:40.318Z,2.38
2023-04-27T16:40:08.040Z,2.88
2023-04-27T16:42:34.781Z,11.07
2023-04-27T16:45:03.416Z,3.15
2023-04-27T16:47:32.020Z,3.53
2023-04-27T16:49:58.913Z,7.00
2023-04-27T16:52:26.098Z,3.28
2023-04-27T16:54:57.101Z,2.22
2023-04-27T16:57:23.738Z,2.73
2023-04-27T16:59:50.420Z,5.35
2023-04-27T17:02:24.397Z,6.65
2023-04-27T17:04:51.758Z,4.28
2023-04-27T17:07:18.726Z,5.97
2023-04-27T17:09:45.516Z,4.32
2023-04-27T17:12:17.255Z,11.90
2023-04-27T17:14:43.981Z,5.35
2023-04-27T17:17:11.281Z,2.95
2023-04-27T17:19:38.859Z,4.65
2023-04-27T17:22:05.700Z,4.13
2023-04-27T17:24:35.292Z,5.55
2023-04-27T17:27:02.132Z,5.50
2023-04-27T17:29:31.091Z,4.95
2023-04-27T17:31:57.921Z,5.55
2023-04-27T17:34:27.944Z,4.95
2023-04-27T17:37:00.268Z,3.53
2023-04-27T17:39:27.606Z,4.88
2023-04-27T17:41:56.648Z,4.07
2023-04-27T17:44:23.557Z,5.80
2023-04-27T17:47:06.925Z,4.47
2023-04-27T17:49:47.635Z,3.92
2023-04-27T17:52:32.560Z,7.95
2023-04-27T17:55:15.186Z,5.00
2023-04-27T17:57:58.266Z,5.78
2023-04-27T18:00:44.371Z,3.55
2023-04-27T18:03:26.955Z,5.18
2023-04-27T18:05:55.055Z,7.38
2023-04-27T18:08:21.991Z,4.78
2023-04-27T18:10:48.668Z,4.50
2023-04-27T18:13:15.392Z,4.18
2023-04-27T18:15:48.937Z,3.47
2023-04-27T18:18:25.363Z,4.70
2023-04-27T18:20:54.844Z,8.68
2023-04-27T18:23:22.123Z,4.25
2023-04-27T18:25:52.245Z,3.30
2023-04-27T18:28:21.388Z,3.30
2023-04-27T18:30:50.823Z,7.55
2023-04-27T18:33:23.511Z,7.82
2023-04-27T18:35:50.777Z,3.63
2023-04-27T18:38:17.500Z,6.22
2023-04-27T18:40:44.204Z,3.45
2023-04-27T18:43:12.725Z,4.15
2023-04-27T18:45:48.408Z,5.97
2023-04-27T18:48:28.115Z,5.97
2023-04-27T18:50:57.425Z,7.60
2023-04-27T18:53:24.324Z,8.15
2023-04-27T18:55:51.128Z,5.82
2023-04-27T18:58:18.007Z,4.43
2023-04-27T19:00:44.804Z,5.32
2023-04-27T19:03:16.939Z,6.07
2023-04-27T19:05:47.633Z,6.07
2023-04-27T19:08:15.489Z,4.90
2023-04-27T19:10:42.207Z,2.90
2023-04-27T19:13:10.435Z,8.43
2023-04-27T19:15:37.200Z,4.70
2023-04-27T19:18:10.531Z,5.78
2023-04-27T19:20:38.982Z,8.63
2023-04-27T19:23:05.805Z,3.75
2023-04-27T19:25:32.540Z,6.70
2023-04-27T19:28:01.438Z,5.65
2023-04-27T19:30:31.616Z,6.07
2023-04-27T19:32:58.974Z,6.35
2023-04-27T19:35:25.982Z,3.20
2023-04-27T19:37:53.139Z,9.00
2023-04-27T19:40:19.974Z,5.32
2023-04-27T19:42:56.040Z,8.02
2023-04-27T19:45:22.772Z,4.43
2023-04-27T19:47:54.006Z,6.07
2023-04-27T19:50:28.308Z,7.10
2023-04-27T19:53:06.880Z,6.38
2023-04-27T19:55:40.448Z,5.90
2023-04-27T19:58:07.198Z,4.55
2023-04-27T20:00:34.272Z,8.75
2023-04-27T20:03:09.374Z,19.05
2023-04-27T20:05:37.826Z,7.03
2023-04-27T20:08:07.535Z,6.80
2023-04-27T20:10:42.404Z,6.70
2023-04-27T20:13:15.987Z,7.82
2023-04-27T20:15:47.989Z,4.57
2023-04-27T20:18:20.391Z,4.28
2023-04-27T20:20:47.387Z,4.90
2023-04-27T20:23:14.074Z,6.93
2023-04-27T20:25:41.257Z,8.80
2023-04-27T20:28:07.930Z,7.25
2023-04-27T20:30:39.751Z,4.88
2023-04-27T20:33:08.224Z,4.68
2023-04-27T20:35:35.317Z,4.18
2023-04-27T20:38:06.934Z,8.43
2023-04-27T20:40:35.437Z,9.27
2023-04-27T20:43:02.181Z,10.02
2023-04-27T20:45:34.846Z,8.38
2023-04-27T20:48:01.634Z,8.32
2023-04-27T20:53:08.966Z,6.85
2023-04-27T20:55:35.667Z,8.68
2023-04-27T20:58:03.579Z,10.30
2023-04-27T21:00:30.419Z,7.95
2023-04-27T21:02:57.274Z,12.95
2023-04-27T21:05:24.084Z,15.68
2023-04-27T21:07:50.751Z,8.63
2023-04-27T21:10:17.453Z,8.25
2023-04-27T21:12:44.235Z,9.82
2023-04-27T21:15:11.028Z,5.78
2023-04-27T21:17:38.238Z,8.70
2023-04-27T21:20:11.066Z,14.93
2023-04-27T21:22:37.751Z,10.60
2023-04-27T21:25:04.612Z,10.07
2023-04-27T21:27:31.726Z,7.03
2023-04-27T21:29:59.006Z,9.05
2023-04-27T21:32:27.023Z,9.18
2023-04-27T21:35:05.386Z,6.53
2023-04-27T21:37:33.170Z,7.82
2023-04-27T21:40:00.154Z,8.27
2023-04-27T21:42:33.287Z,10.63
2023-04-27T21:45:03.054Z,15.57
2023-04-27T21:47:29.941Z,5.00
2023-04-27T21:49:56.636Z,6.53
2023-04-27T21:52:23.319Z,8.15
2023-04-27T21:54:50.255Z,7.43
2023-04-27T21:57:18.731Z,17.27
2023-04-27T21:59:52.251Z,11.23
2023-04-27T22:02:21.085Z,8.35
2023-04-27T22:04:50.197Z,6.63
2023-04-27T22:07:17.760Z,6.85
2023-04-27T22:09:50.721Z,10.45
2023-04-27T22:12:18.002Z,9.60
2023-04-27T22:14:50.799Z,11.18
2023-04-27T22:17:20.962Z,12.60
2023-04-27T22:19:47.728Z,15.70
2023-04-27T22:22:14.401Z,11.43
2023-04-27T22:24:41.115Z,8.52
2023-04-27T22:27:07.817Z,9.23
2023-04-27T22:29:34.767Z,9.10
2023-04-27T22:32:04.699Z,16.00
2023-04-27T22:34:31.786Z,14.05
2023-04-27T22:37:01.590Z,8.48
2023-04-27T22:39:33.136Z,12.80
2023-04-27T22:41:59.815Z,6.60
2023-04-27T22:44:26.622Z,8.95
2023-04-27T22:46:53.413Z,13.00
2023-04-27T22:49:20.204Z,10.50
2023-04-27T22:51:46.938Z,7.53
2023-04-27T22:54:14.889Z,5.90
2023-04-27T22:56:43.829Z,10.55
2023-04-27T22:59:10.763Z,8.23
2023-04-27T23:01:38.465Z,11.70
2023-04-27T23:04:06.323Z,15.20
2023-04-27T23:06:38.400Z,11.85
2023-04-27T23:09:06.246Z,11.38
2023-04-27T23:11:34.335Z,11.38
2023-04-27T23:14:01.319Z,22.17
2023-04-27T23:16:28.092Z,12.88
2023-04-27T23:18:57.490Z,9.45
2023-04-27T23:21:25.425Z,9.93
2023-04-27T23:23:52.081Z,11.07
2023-04-27T23:26:18.890Z,9.88
2023-04-27T23:28:46.910Z,13.93
2023-04-27T23:31:13.933Z,10.93
2023-04-27T23:33:48.019Z,9.80
2023-04-27T23:36:14.713Z,14.68
2023-04-27T23:38:41.648Z,11.27
2023-04-27T23:41:08.340Z,14.90
2023-04-27T23:43:35.058Z,11.20
2023-04-27T23:46:04.639Z,10.75
2023-04-27T23:48:40.440Z,10.70
2023-04-27T23:51:10.168Z,12.43
2023-04-27T23:53:40.830Z,9.77
2023-04-27T23:56:18.694Z,11.52
2023-04-27T23:58:45.818Z,7.22
